createdAt,value
2022-11-23T00:01:39.323Z,98524.94
2022-11-23T00:06:36.406Z,98520.38
2022-11-23T00:11:34.957Z,98509.66
2022-11-23T00:16:31.381Z,98510.50
2022-11-23T00:21:30.045Z,98505.06
2022-11-23T00:26:26.342Z,98514.38
2022-11-23T00:31:22.978Z,98509.97
2022-11-23T00:36:20.553Z,98510.63
2022-11-23T00:41:22.532Z,98509.25
2022-11-23T00:46:20.332Z,98506.16
2022-11-23T00:51:19.642Z,98514.09
2022-11-23T00:56:16.853Z,98508.81
2022-11-23T01:01:15.471Z,98510.34
2022-11-23T01:06:16.665Z,98514.38
2022-11-23T01:11:13.053Z,98498.69
2022-11-23T01:16:24.090Z,98512.56
2022-11-23T01:21:20.859Z,98512.16
2022-11-23T01:26:17.864Z,98502.97
2022-11-23T01:31:16.837Z,98513.41
2022-11-23T01:36:14.048Z,98504.34
2022-11-23T01:41:13.952Z,98515.47
2022-11-23T01:46:11.898Z,98517.56
2022-11-23T01:51:14.733Z,98526.03
2022-11-23T01:56:17.170Z,98523.53
2022-11-23T02:01:14.384Z,98525.19
2022-11-23T02:06:16.970Z,98531.16
2022-11-23T02:11:15.307Z,98523.78
2022-11-23T02:16:13.008Z,98527.44
2022-11-23T02:21:09.721Z,98534.34
2022-11-23T02:26:17.795Z,98534.19
2022-11-23T02:31:14.208Z,98536.69
2022-11-23T02:36:28.496Z,98538.31
2022-11-23T02:41:25.281Z,98533.19
2022-11-23T02:46:21.770Z,98540.13
2022-11-23T02:51:18.173Z,98543.84
2022-11-23T02:56:14.530Z,98548.56
2022-11-23T03:01:10.949Z,98546.72
2022-11-23T03:06:07.369Z,98542.06
2022-11-23T03:11:03.755Z,98549.69
2022-11-23T03:16:00.093Z,98553.19
2022-11-23T03:21:02.759Z,98553.63
2022-11-23T03:25:59.238Z,98555.53
2022-11-23T03:30:55.810Z,98565.75
2022-11-23T03:35:52.232Z,98564.47
2022-11-23T03:40:48.882Z,98561.53
2022-11-23T03:45:45.262Z,98571.16
2022-11-23T03:50:41.640Z,98569.06
2022-11-23T03:55:37.954Z,98565.34
2022-11-23T04:00:35.322Z,98563.56
2022-11-23T04:05:31.745Z,98568.19
2022-11-23T04:10:28.074Z,98569.75
2022-11-23T04:15:24.416Z,98568.47
2022-11-23T04:20:20.865Z,98558.56
2022-11-23T04:25:17.751Z,98564.50
2022-11-23T04:30:14.821Z,98561.63
2022-11-23T04:35:11.833Z,98565.78
2022-11-23T04:40:08.907Z,98573.31
2022-11-23T04:45:05.704Z,98565.91
2022-11-23T04:50:02.108Z,98565.00
2022-11-23T04:54:58.548Z,98569.72
2022-11-23T04:59:54.903Z,98573.63
2022-11-23T05:04:51.283Z,98580.00
2022-11-23T05:09:48.115Z,98582.09
2022-11-23T05:14:44.516Z,98574.56
2022-11-23T05:19:40.877Z,98578.63
2022-11-23T05:24:37.251Z,98576.78
2022-11-23T05:29:34.126Z,98579.84
2022-11-23T05:34:30.697Z,98581.22
2022-11-23T05:39:27.245Z,98587.91
2022-11-23T05:44:23.616Z,98600.72
2022-11-23T05:49:19.985Z,98611.53
2022-11-23T05:54:16.350Z,98601.38
2022-11-23T05:59:12.860Z,98600.94
2022-11-23T06:04:09.232Z,98600.13
2022-11-23T06:09:05.670Z,98598.56
2022-11-23T06:14:02.027Z,98607.22
2022-11-23T06:18:58.516Z,98604.63
2022-11-23T06:23:54.881Z,98606.81
2022-11-23T06:28:51.421Z,98604.19
2022-11-23T06:33:47.867Z,98614.19
2022-11-23T06:38:44.348Z,98610.75
2022-11-23T06:43:40.828Z,98612.25
2022-11-23T06:48:37.162Z,98615.50
2022-11-23T06:53:33.503Z,98620.06
2022-11-23T06:58:30.111Z,98629.13
2022-11-23T07:03:26.660Z,98629.28
2022-11-23T07:08:23.424Z,98632.91
2022-11-23T07:13:19.783Z,98625.50
2022-11-23T07:18:16.143Z,98632.91
2022-11-23T07:23:12.620Z,98638.44
2022-11-23T07:28:12.026Z,98636.22
2022-11-23T07:33:11.795Z,98635.09
2022-11-23T07:38:09.157Z,98655.84
2022-11-23T07:43:06.583Z,98650.38
2022-11-23T07:48:06.387Z,98656.66
2022-11-23T07:53:04.678Z,98661.63
2022-11-23T07:58:01.273Z,98664.00
2022-11-23T08:03:26.010Z,98667.72
2022-11-23T08:08:15.359Z,98675.91
2022-11-23T08:13:12.094Z,98677.59
2022-11-23T08:18:09.465Z,98674.78
2022-11-23T08:23:06.203Z,98681.19
2022-11-23T08:28:04.473Z,98689.50
2022-11-23T08:33:05.688Z,98689.44
2022-11-23T08:38:02.732Z,98692.50
2022-11-23T08:42:59.177Z,98702.22
2022-11-23T08:48:00.932Z,98709.75
2022-11-23T08:52:58.596Z,98707.50
2022-11-23T08:57:59.397Z,98697.31
2022-11-23T09:02:58.944Z,98699.66
2022-11-23T09:07:59.144Z,98704.16
2022-11-23T09:12:55.898Z,98703.28
2022-11-23T09:17:52.296Z,98713.97
2022-11-23T09:22:52.579Z,98720.34
2022-11-23T09:27:49.941Z,98723.69
2022-11-23T09:32:46.285Z,98727.72
2022-11-23T09:37:42.664Z,98726.47
2022-11-23T09:43:28.432Z,98730.28
2022-11-23T09:49:00.524Z,98733.28
2022-11-23T09:54:04.074Z,98732.34
2022-11-23T09:59:05.514Z,98735.28
2022-11-23T10:04:04.502Z,98732.59
2022-11-23T10:09:00.902Z,98731.22
2022-11-23T10:14:20.618Z,98736.16
2022-11-23T10:19:19.823Z,98726.09
2022-11-23T10:24:25.100Z,98727.47
2022-11-23T10:29:38.436Z,98726.41
2022-11-23T10:34:59.579Z,98719.78
2022-11-23T10:39:57.577Z,98725.34
2022-11-23T10:44:56.334Z,98718.06
2022-11-23T10:50:01.869Z,98712.94
2022-11-23T10:55:01.480Z,98715.91
2022-11-23T11:00:01.981Z,98711.41
2022-11-23T11:05:15.602Z,98703.97
2022-11-23T11:10:37.779Z,98697.41
2022-11-23T11:15:38.863Z,98703.94
2022-11-23T11:20:45.549Z,98702.16
2022-11-23T11:25:42.585Z,98701.94
2022-11-23T11:31:04.151Z,98701.97
2022-11-23T11:36:02.520Z,98706.63
2022-11-23T11:41:00.572Z,98713.88
2022-11-23T11:46:30.490Z,98718.22
2022-11-23T11:51:40.162Z,98710.94
2022-11-23T11:56:41.927Z,98708.91
2022-11-23T12:01:48.457Z,98702.91
2022-11-23T12:06:51.867Z,98702.06
2022-11-23T12:11:48.632Z,98697.25
2022-11-23T12:17:31.393Z,98686.75
2022-11-23T12:22:35.529Z,98688.06
2022-11-23T12:27:56.533Z,98684.09
2022-11-23T12:33:17.028Z,98689.94
2022-11-23T12:38:26.738Z,98683.31
2022-11-23T12:43:36.765Z,98660.81
2022-11-23T12:48:39.214Z,98663.38
2022-11-23T12:54:00.454Z,98654.91
2022-11-23T12:58:59.153Z,98664.88
2022-11-23T13:04:16.505Z,98659.31
2022-11-23T13:09:37.644Z,98646.16
2022-11-23T13:14:44.380Z,98647.94
2022-11-23T13:20:04.202Z,98651.25
2022-11-23T13:25:07.916Z,98650.91
2022-11-23T13:31:13.234Z,98658.00
2022-11-23T13:36:05.567Z,98659.50
2022-11-23T13:41:47.565Z,98661.41
2022-11-23T13:46:44.182Z,98664.69
2022-11-23T13:51:40.712Z,98663.16
2022-11-23T13:56:41.109Z,98672.69
2022-11-23T14:02:02.926Z,98673.03
2022-11-23T14:07:01.884Z,98655.41
2022-11-23T14:12:21.136Z,98669.53
2022-11-23T14:17:55.780Z,98655.41
2022-11-23T14:23:33.366Z,98656.31
2022-11-23T14:28:44.840Z,98650.56
2022-11-23T14:34:10.711Z,98645.16
2022-11-23T14:39:36.455Z,98645.53
2022-11-23T14:44:38.425Z,98643.53
2022-11-23T14:49:36.316Z,98626.13
2022-11-23T14:54:32.965Z,98629.31
2022-11-23T14:59:33.351Z,98627.47
2022-11-23T15:04:37.235Z,98626.22
2022-11-23T15:10:12.367Z,98625.78
2022-11-23T15:15:25.123Z,98628.03
2022-11-23T15:20:24.174Z,98636.00
2022-11-23T15:25:20.888Z,98628.00
2022-11-23T15:30:18.824Z,98640.94
2022-11-23T15:35:15.744Z,98646.44
2022-11-23T15:40:15.545Z,98647.56
2022-11-23T15:45:36.636Z,98667.38
2022-11-23T15:50:34.421Z,98671.59
2022-11-23T15:55:31.693Z,98675.50
2022-11-23T16:00:28.380Z,98679.63
2022-11-23T16:05:25.411Z,98685.47
2022-11-23T16:10:25.000Z,98689.22
2022-11-23T16:15:27.424Z,98694.50
2022-11-23T16:20:25.203Z,98697.13
2022-11-23T16:25:31.633Z,98698.81
2022-11-23T16:30:40.420Z,98708.66
2022-11-23T16:35:36.855Z,98717.28
2022-11-23T16:40:33.669Z,98722.16
2022-11-23T16:45:31.714Z,98726.06
2022-11-23T16:50:30.509Z,98725.59
2022-11-23T16:55:26.963Z,98718.19
2022-11-23T17:00:23.988Z,98725.97
2022-11-23T17:05:23.796Z,98724.06
2022-11-23T17:10:20.198Z,98732.97
2022-11-23T17:15:19.180Z,98741.22
2022-11-23T17:20:17.382Z,98739.31
2022-11-23T17:25:15.308Z,98745.69
2022-11-23T17:30:19.049Z,98756.03
2022-11-23T17:35:16.298Z,98751.38
2022-11-23T17:40:23.885Z,98763.91
2022-11-23T17:45:20.368Z,98768.72
2022-11-23T17:50:19.181Z,98772.38
2022-11-23T17:55:16.416Z,98786.47
2022-11-23T18:00:19.147Z,98804.91
2022-11-23T18:05:21.216Z,98816.53
2022-11-23T18:10:18.728Z,98826.03
2022-11-23T18:15:15.239Z,98827.13
2022-11-23T18:20:12.136Z,98827.53
2022-11-23T18:25:09.215Z,98825.00
2022-11-23T18:30:06.072Z,98825.81
2022-11-23T18:35:02.528Z,98832.00
2022-11-23T18:39:58.874Z,98829.56
2022-11-23T18:44:55.220Z,98832.28
2022-11-23T18:49:53.032Z,98830.88
2022-11-23T18:54:49.388Z,98836.16
2022-11-23T19:00:01.823Z,98843.41
2022-11-23T19:04:58.581Z,98848.69
2022-11-23T19:09:55.501Z,98838.91
2022-11-23T19:14:51.871Z,98844.81
2022-11-23T19:19:48.236Z,98855.94
2022-11-23T19:24:44.672Z,98866.50
2022-11-23T19:29:41.153Z,98880.41
2022-11-23T19:34:37.675Z,98882.38
2022-11-23T19:39:34.272Z,98889.56
2022-11-23T19:44:30.947Z,98890.09
2022-11-23T19:49:27.712Z,98888.09
2022-11-23T19:54:24.237Z,98904.16
2022-11-23T19:59:20.575Z,98907.84
2022-11-23T20:04:16.908Z,98896.00
2022-11-23T20:09:16.876Z,98912.25
2022-11-23T20:14:13.389Z,98912.50
2022-11-23T20:19:09.956Z,98921.38
2022-11-23T20:24:10.707Z,98915.00
2022-11-23T20:29:08.421Z,98926.78
2022-11-23T20:34:07.741Z,98929.78
2022-11-23T20:39:07.760Z,98924.72
2022-11-23T20:44:06.774Z,98927.81
2022-11-23T20:49:03.357Z,98937.22
2022-11-23T20:53:59.738Z,98944.69
2022-11-23T20:58:59.702Z,98951.09
2022-11-23T21:03:58.667Z,98958.63
2022-11-23T21:08:55.569Z,98969.50
2022-11-23T21:14:09.093Z,98973.75
2022-11-23T21:19:09.516Z,98971.44
2022-11-23T21:24:07.042Z,98982.78
2022-11-23T21:29:11.236Z,98982.00
2022-11-23T21:34:10.622Z,98988.00
2022-11-23T21:39:10.035Z,98992.91
2022-11-23T21:44:07.747Z,98996.25
2022-11-23T21:49:06.558Z,99000.28
2022-11-23T21:54:05.502Z,99007.03
2022-11-23T21:59:02.013Z,99005.56
2022-11-23T22:04:08.670Z,99005.56
2022-11-23T22:09:08.002Z,99014.59
2022-11-23T22:14:07.287Z,99016.72
2022-11-23T22:19:04.311Z,99016.28
2022-11-23T22:24:01.205Z,99025.75
2022-11-23T22:29:02.313Z,99026.69
2022-11-23T22:33:58.688Z,99040.06
2022-11-23T22:39:01.370Z,99037.28
2022-11-23T22:43:58.258Z,99037.88
2022-11-23T22:48:59.115Z,99047.22
2022-11-23T22:53:57.571Z,99047.38
2022-11-23T22:58:54.029Z,99051.56
2022-11-23T23:03:55.436Z,99052.50
2022-11-23T23:08:55.436Z,99045.78
2022-11-23T23:13:52.672Z,99055.25
2022-11-23T23:18:49.478Z,99057.78
2022-11-23T23:23:48.186Z,99067.13
2022-11-23T23:28:45.285Z,99075.03
2022-11-23T23:33:42.816Z,99087.50
2022-11-23T23:38:40.258Z,99099.50
2022-11-23T23:43:36.860Z,99086.06
2022-11-23T23:48:35.734Z,99091.63
2022-11-23T23:53:34.015Z,99099.59
2022-11-23T23:58:30.841Z,99101.75
